createdAt,value
2022-10-15T00:00:50.549Z,12.6
2022-10-15T00:02:49.394Z,12.6
2022-10-15T00:06:49.424Z,12.6
2022-10-15T00:08:49.162Z,12.6
2022-10-15T00:12:49.276Z,12.6
2022-10-15T00:14:48.696Z,12.6
2022-10-15T00:16:51.601Z,12.6
2022-10-15T00:18:49.241Z,12.6
2022-10-15T00:20:48.947Z,12.6
2022-10-15T00:22:50.926Z,12.6
2022-10-15T00:24:48.779Z,12.6
2022-10-15T00:26:48.485Z,12.6
2022-10-15T00:28:50.893Z,12.6
2022-10-15T00:30:49.327Z,12.6
2022-10-15T00:32:48.042Z,12.6
2022-10-15T00:34:50.508Z,12.6
2022-10-15T00:36:49.639Z,12.6
2022-10-15T00:38:50.470Z,12.6
2022-10-15T00:40:50.609Z,12.6
2022-10-15T00:42:48.847Z,12.6
2022-10-15T00:44:47.604Z,12.6
2022-10-15T00:46:50.708Z,12.5
2022-10-15T00:48:48.265Z,12.6
2022-10-15T00:50:49.341Z,12.6
2022-10-15T00:52:50.717Z,12.6
2022-10-15T00:54:49.904Z,12.6
2022-10-15T00:56:48.288Z,12.6
2022-10-15T00:58:49.895Z,12.6
2022-10-15T01:00:49.330Z,12.6
2022-10-15T01:02:48.709Z,12.6
2022-10-15T01:04:51.590Z,12.6
2022-10-15T01:06:47.427Z,12.6
2022-10-15T01:08:48.303Z,12.6
2022-10-15T01:10:51.049Z,12.6
2022-10-15T01:12:48.389Z,12.6
2022-10-15T01:16:50.541Z,12.6
2022-10-15T01:18:48.339Z,12.6
2022-10-15T01:20:49.434Z,12.6
2022-10-15T01:22:51.015Z,12.6
2022-10-15T01:24:49.911Z,12.6
2022-10-15T01:26:49.521Z,12.6
2022-10-15T01:28:50.590Z,12.6
2022-10-15T01:30:51.038Z,12.6
2022-10-15T01:32:47.073Z,12.6
2022-10-15T01:34:51.015Z,12.7
2022-10-15T01:36:45.315Z,12.6
2022-10-15T01:38:48.895Z,12.7
2022-10-15T01:40:50.626Z,12.7
2022-10-15T01:42:48.558Z,12.6
2022-10-15T01:46:50.921Z,12.7
2022-10-15T01:48:49.780Z,12.7
2022-10-15T01:50:48.406Z,12.7
2022-10-15T01:54:50.488Z,12.7
2022-10-15T01:56:48.548Z,12.8
2022-10-15T01:58:50.804Z,12.8
2022-10-15T02:00:47.128Z,12.8
2022-10-15T02:02:49.813Z,12.8
2022-10-15T02:04:50.118Z,12.8
2022-10-15T02:06:49.460Z,12.8
2022-10-15T02:08:50.196Z,12.8
2022-10-15T02:10:50.809Z,12.8
2022-10-15T02:12:50.617Z,12.8
2022-10-15T02:14:47.582Z,12.8
2022-10-15T02:16:50.716Z,12.8
2022-10-15T02:18:50.836Z,12.9
2022-10-15T02:20:47.375Z,12.9
2022-10-15T02:22:50.895Z,12.9
2022-10-15T02:24:50.477Z,12.9
2022-10-15T02:26:49.910Z,12.9
2022-10-15T02:28:51.037Z,12.9
2022-10-15T02:30:47.598Z,12.9
2022-10-15T02:32:49.326Z,12.9
2022-10-15T02:34:50.161Z,13
2022-10-15T02:36:47.463Z,13
2022-10-15T02:38:48.932Z,13
2022-10-15T02:40:50.518Z,13
2022-10-15T02:42:49.877Z,13
2022-10-15T02:44:47.948Z,13
2022-10-15T02:48:50.860Z,13
2022-10-15T02:50:47.493Z,13
2022-10-15T02:52:50.900Z,13
2022-10-15T02:54:49.394Z,13
2022-10-15T02:56:50.624Z,13
2022-10-15T02:58:49.304Z,13
2022-10-15T03:00:47.198Z,13.1
2022-10-15T03:02:48.941Z,13
2022-10-15T03:04:50.922Z,13
2022-10-15T03:06:46.145Z,13
2022-10-15T03:08:49.696Z,13.1
2022-10-15T03:12:50.221Z,13.1
2022-10-15T03:14:48.269Z,13.1
2022-10-15T03:16:50.985Z,13.1
2022-10-15T03:18:48.331Z,13.1
2022-10-15T03:20:50.722Z,13.1
2022-10-15T03:22:50.922Z,13.1
2022-10-15T03:24:49.679Z,13.1
2022-10-15T03:26:45.840Z,13.1
2022-10-15T03:28:50.558Z,13.1
2022-10-15T03:30:48.409Z,13.1
2022-10-15T03:32:49.309Z,13.1
2022-10-15T03:34:50.803Z,13.1
2022-10-15T03:36:50.230Z,13.1
2022-10-15T03:38:49.260Z,13.1
2022-10-15T03:40:50.599Z,13.2
2022-10-15T03:42:46.824Z,13.2
2022-10-15T03:44:49.806Z,13.2
2022-10-15T03:46:50.513Z,13.2
2022-10-15T03:48:45.649Z,13.2
2022-10-15T03:50:50.950Z,13.2
2022-10-15T03:54:49.404Z,13.2
2022-10-15T03:56:48.736Z,13.3
2022-10-15T04:00:47.070Z,13.3
2022-10-15T04:02:50.263Z,13.3
2022-10-15T04:08:48.115Z,13.3
2022-10-15T04:10:50.618Z,13.3
2022-10-15T04:12:47.137Z,13.3
2022-10-15T04:14:49.909Z,13.4
2022-10-15T04:16:51.006Z,13.4
2022-10-15T04:18:49.662Z,13.4
2022-10-15T04:20:47.470Z,13.4
2022-10-15T04:22:50.990Z,13.4
2022-10-15T04:24:47.228Z,13.5
2022-10-15T04:26:47.978Z,13.5
2022-10-15T04:28:51.054Z,13.5
2022-10-15T04:30:48.749Z,13.5
2022-10-15T04:32:49.777Z,13.5
2022-10-15T04:34:50.667Z,13.5
2022-10-15T04:36:48.909Z,13.5
2022-10-15T04:38:48.256Z,13.6
2022-10-15T04:40:50.803Z,13.6
2022-10-15T04:44:48.710Z,13.6
2022-10-15T04:46:51.023Z,13.6
2022-10-15T04:48:47.213Z,13.6
2022-10-15T04:50:50.281Z,13.6
2022-10-15T04:52:50.835Z,13.6
2022-10-15T04:54:49.010Z,13.6
2022-10-15T04:56:48.417Z,13.7
2022-10-15T04:58:51.077Z,13.7
2022-10-15T05:00:45.749Z,13.7
2022-10-15T05:02:50.452Z,13.8
2022-10-15T05:04:50.046Z,13.8
2022-10-15T05:06:45.714Z,13.8
2022-10-15T05:08:47.154Z,13.7
2022-10-15T05:10:50.738Z,13.8
2022-10-15T05:12:52.720Z,13.8
2022-10-15T05:14:50.552Z,13.8
2022-10-15T05:16:51.358Z,13.8
2022-10-15T05:18:49.336Z,13.9
2022-10-15T05:20:48.883Z,13.9
2022-10-15T05:24:45.763Z,13.8
2022-10-15T05:26:49.421Z,13.8
2022-10-15T05:28:50.214Z,13.8
2022-10-15T05:30:48.531Z,13.8
2022-10-15T05:32:47.169Z,13.9
2022-10-15T05:34:51.096Z,13.9
2022-10-15T05:36:47.567Z,13.9
2022-10-15T05:38:49.267Z,13.9
2022-10-15T05:40:50.633Z,13.9
2022-10-15T05:42:48.644Z,13.9
2022-10-15T05:44:48.099Z,13.9
2022-10-15T05:46:50.757Z,13.9
2022-10-15T05:48:49.730Z,13.9
2022-10-15T05:50:47.688Z,13.9
2022-10-15T05:54:48.487Z,13.9
2022-10-15T05:56:47.484Z,13.9
2022-10-15T05:58:50.442Z,13.9
2022-10-15T06:00:48.979Z,13.9
2022-10-15T06:02:49.895Z,13.9
2022-10-15T06:04:50.847Z,13.9
2022-10-15T06:06:48.879Z,14
2022-10-15T06:10:51.699Z,14
2022-10-15T06:12:50.608Z,14
2022-10-15T06:14:48.070Z,14
2022-10-15T06:16:50.346Z,14
2022-10-15T06:18:49.860Z,14.1
2022-10-15T06:20:49.347Z,14.1
2022-10-15T06:24:48.556Z,14.1
2022-10-15T06:26:50.512Z,14.1
2022-10-15T06:28:50.942Z,14.1
2022-10-15T06:30:48.570Z,14.1
2022-10-15T06:32:48.879Z,14.1
2022-10-15T06:34:50.550Z,14.1
2022-10-15T06:36:48.426Z,14.1
2022-10-15T06:38:49.575Z,14.2
2022-10-15T06:40:51.017Z,14.2
2022-10-15T06:42:45.830Z,14.2
2022-10-15T06:44:48.819Z,14.3
2022-10-15T06:46:50.979Z,14.3
2022-10-15T06:48:46.122Z,14.3
2022-10-15T06:50:47.183Z,14.3
2022-10-15T06:54:48.402Z,14.3
2022-10-15T06:56:48.956Z,14.3
2022-10-15T06:58:50.773Z,14.3
2022-10-15T07:00:45.748Z,14.3
2022-10-15T07:02:48.288Z,14.3
2022-10-15T07:04:50.615Z,14.3
2022-10-15T07:06:47.176Z,14.3
2022-10-15T07:08:47.549Z,14.3
2022-10-15T07:10:50.667Z,14.4
2022-10-15T07:12:52.067Z,14.4
2022-10-15T07:14:45.741Z,14.4
2022-10-15T07:16:51.387Z,14.4
2022-10-15T07:18:50.196Z,14.4
2022-10-15T07:20:50.331Z,14.5
2022-10-15T07:22:50.583Z,14.6
2022-10-15T07:24:47.709Z,14.6
2022-10-15T07:26:50.729Z,14.6
2022-10-15T07:28:50.483Z,14.7
2022-10-15T07:30:48.863Z,14.7
2022-10-15T07:32:47.574Z,14.7
2022-10-15T07:34:50.626Z,14.8
2022-10-15T07:36:48.345Z,14.8
2022-10-15T07:38:52.029Z,14.8
2022-10-15T07:40:50.572Z,14.8
2022-10-15T07:42:49.253Z,14.8
2022-10-15T07:44:49.793Z,14.8
2022-10-15T07:46:50.659Z,14.9
2022-10-15T07:48:47.126Z,14.9
2022-10-15T07:50:49.154Z,14.9
2022-10-15T07:52:50.879Z,14.9
2022-10-15T07:54:47.118Z,15
2022-10-15T07:56:50.093Z,15
2022-10-15T07:58:47.670Z,15
2022-10-15T08:00:49.971Z,15.1
2022-10-15T08:02:50.626Z,15
2022-10-15T08:04:50.777Z,15
2022-10-15T08:06:48.854Z,15
2022-10-15T08:08:47.189Z,15
2022-10-15T08:12:49.308Z,15.1
2022-10-15T08:14:49.476Z,15.1
2022-10-15T08:16:50.664Z,15.2
2022-10-15T08:18:50.092Z,15.5
2022-10-15T08:20:50.436Z,15.6
2022-10-15T08:22:50.772Z,15.9
2022-10-15T08:24:47.088Z,15.9
2022-10-15T08:26:50.243Z,15.9
2022-10-15T08:28:50.662Z,16
2022-10-15T08:30:48.391Z,16
2022-10-15T08:32:50.101Z,16
2022-10-15T08:38:02.334Z,16
2022-10-15T08:43:19.298Z,16.1
2022-10-15T08:45:49.693Z,16.2
2022-10-15T08:47:47.492Z,16.2
2022-10-15T08:49:48.160Z,16.2
2022-10-15T08:51:43.439Z,16.3
2022-10-15T08:53:47.164Z,16.3
2022-10-15T08:55:48.427Z,16.1
2022-10-15T08:57:49.990Z,15.9
2022-10-15T08:59:48.199Z,15.9
2022-10-15T09:01:46.588Z,16
2022-10-15T09:03:46.733Z,16
2022-10-15T09:05:43.142Z,16.1
2022-10-15T09:07:44.856Z,16
2022-10-15T09:09:46.342Z,16.1
2022-10-15T09:11:46.856Z,16.1
2022-10-15T09:13:44.369Z,16.3
2022-10-15T09:15:43.405Z,16.3
2022-10-15T09:17:45.293Z,16.2
2022-10-15T09:19:47.511Z,16.3
2022-10-15T09:21:45.309Z,16.2
2022-10-15T09:23:48.539Z,16.1
2022-10-15T09:25:47.314Z,16.3
2022-10-15T09:27:43.436Z,16.3
2022-10-15T09:29:51.124Z,16.4
2022-10-15T09:33:47.590Z,16.4
2022-10-15T09:35:47.547Z,16.4
2022-10-15T09:39:43.037Z,16.4
2022-10-15T09:41:47.530Z,16.4
2022-10-15T09:45:45.885Z,16.4
2022-10-15T09:47:43.122Z,16.4
2022-10-15T09:49:44.893Z,16.4
2022-10-15T09:51:46.287Z,16
2022-10-15T09:53:46.168Z,15.9
2022-10-15T09:55:45.390Z,15.6
2022-10-15T09:57:44.939Z,15.8
2022-10-15T09:59:47.246Z,15.8
2022-10-15T10:01:45.722Z,15.8
2022-10-15T10:03:43.161Z,15.9
2022-10-15T10:05:43.132Z,16
2022-10-15T10:07:47.308Z,16.1
2022-10-15T10:09:44.856Z,16.2
2022-10-15T10:11:48.603Z,16.4
2022-10-15T10:13:47.147Z,16.4
2022-10-15T10:15:43.040Z,16.5
2022-10-15T10:17:47.731Z,16.4
2022-10-15T10:19:48.436Z,16.5
2022-10-15T10:21:44.857Z,16.5
2022-10-15T10:23:50.032Z,16.4
2022-10-15T10:25:43.027Z,16.3
2022-10-15T10:27:43.041Z,16.5
2022-10-15T10:29:48.166Z,16.5
2022-10-15T10:31:47.179Z,16.5
2022-10-15T10:33:44.384Z,16.6
2022-10-15T10:35:48.939Z,16.6
2022-10-15T10:37:43.018Z,16.6
2022-10-15T10:39:46.802Z,16.6
2022-10-15T10:41:49.364Z,16.6
2022-10-15T10:43:47.896Z,16.6
2022-10-15T10:45:45.353Z,16.6
2022-10-15T10:47:46.666Z,16.7
2022-10-15T10:49:43.363Z,16.7
2022-10-15T10:51:47.069Z,16.8
2022-10-15T10:53:45.836Z,16.8
2022-10-15T10:55:48.424Z,16.8
2022-10-15T10:57:46.365Z,16.8
2022-10-15T10:59:49.527Z,16.9
2022-10-15T11:01:48.995Z,16.9
2022-10-15T11:03:49.682Z,16.9
2022-10-15T11:05:44.755Z,16.9
2022-10-15T11:07:43.134Z,16.9
2022-10-15T11:09:49.941Z,17
2022-10-15T11:11:50.190Z,17
2022-10-15T11:13:51.259Z,17
2022-10-15T11:15:48.049Z,17
2022-10-15T11:17:43.162Z,17
2022-10-15T11:21:47.148Z,17.1
2022-10-15T11:23:46.309Z,17.1
2022-10-15T11:25:49.599Z,17.1
2022-10-15T11:27:43.049Z,17.1
2022-10-15T11:29:44.903Z,17.1
2022-10-15T11:32:01.569Z,17.2
2022-10-15T11:33:48.366Z,17.2
2022-10-15T11:35:52.253Z,17.3
2022-10-15T11:37:49.728Z,17.3
2022-10-15T11:39:43.285Z,17.3
2022-10-15T11:41:46.291Z,17.3
2022-10-15T11:43:49.654Z,17.3
2022-10-15T11:45:43.054Z,17.4
2022-10-15T11:47:43.134Z,17.4
2022-10-15T11:51:47.580Z,17.4
2022-10-15T11:53:44.934Z,17.5
2022-10-15T11:55:49.006Z,17.5
2022-10-15T11:57:43.048Z,17.5
2022-10-15T11:59:43.023Z,17.5
2022-10-15T12:01:47.275Z,17.6
2022-10-15T12:03:43.063Z,17.6
2022-10-15T12:05:47.898Z,17.6
2022-10-15T12:07:43.043Z,17.7
2022-10-15T12:09:46.791Z,17.8
2022-10-15T12:11:49.969Z,17.8
2022-10-15T12:13:45.031Z,17.7
2022-10-15T12:15:45.843Z,17.7
2022-10-15T12:17:46.888Z,17.7
2022-10-15T12:19:49.357Z,17.7
2022-10-15T12:21:43.081Z,17.7
2022-10-15T12:23:46.302Z,17.7
2022-10-15T12:25:48.888Z,17.7
2022-10-15T12:27:43.098Z,17.6
2022-10-15T12:29:48.483Z,17.6
2022-10-15T12:31:43.048Z,17.6
2022-10-15T12:33:46.617Z,17.7
2022-10-15T12:35:43.041Z,17.7
2022-10-15T12:37:43.155Z,17.8
2022-10-15T12:39:52.411Z,17.8
2022-10-15T12:41:49.914Z,17.8
2022-10-15T12:43:48.001Z,17.9
2022-10-15T12:45:43.160Z,18
2022-10-15T12:47:46.797Z,18
2022-10-15T12:49:47.692Z,18
2022-10-15T12:51:48.238Z,18
2022-10-15T12:53:49.720Z,18.1
2022-10-15T12:55:49.030Z,18.2
2022-10-15T12:57:46.772Z,18.2
2022-10-15T12:59:43.091Z,18.2
2022-10-15T13:01:48.114Z,18.1
2022-10-15T13:03:48.050Z,18
2022-10-15T13:05:43.092Z,18
2022-10-15T13:07:43.066Z,18
2022-10-15T13:09:44.919Z,18.1
2022-10-15T13:11:47.977Z,18.1
2022-10-15T13:13:46.590Z,18
2022-10-15T13:15:47.972Z,18
2022-10-15T13:17:43.407Z,18
2022-10-15T13:19:44.026Z,18
2022-10-15T13:21:46.900Z,17.9
2022-10-15T13:23:45.168Z,17.9
2022-10-15T13:25:48.826Z,17.9
2022-10-15T13:27:43.134Z,17.8
2022-10-15T13:29:48.626Z,17.9
2022-10-15T13:31:45.828Z,17.9
2022-10-15T13:33:43.207Z,18
2022-10-15T13:35:48.190Z,18
2022-10-15T13:37:44.898Z,18
2022-10-15T13:39:48.959Z,18
2022-10-15T13:41:44.772Z,18.1
2022-10-15T13:43:43.062Z,18.1
2022-10-15T13:47:43.208Z,18.2
2022-10-15T13:49:45.791Z,18.2
2022-10-15T13:51:49.948Z,18.1
2022-10-15T13:53:45.605Z,18.1
2022-10-15T13:55:46.197Z,18.1
2022-10-15T13:57:43.249Z,18
2022-10-15T13:59:45.753Z,18
2022-10-15T14:01:48.689Z,17.9
2022-10-15T14:05:47.162Z,17.9
2022-10-15T14:07:43.215Z,17.9
2022-10-15T14:09:43.186Z,17.9
2022-10-15T14:11:47.022Z,17.9
2022-10-15T14:13:47.812Z,17.9
2022-10-15T14:15:45.818Z,17.9
2022-10-15T14:17:47.161Z,17.9
2022-10-15T14:19:47.188Z,17.8
2022-10-15T14:21:45.330Z,17.8
2022-10-15T14:23:47.258Z,17.8
2022-10-15T14:25:49.686Z,17.8
2022-10-15T14:27:49.608Z,17.7
2022-10-15T14:29:52.926Z,17.7
2022-10-15T14:31:45.701Z,17.7
2022-10-15T14:33:43.191Z,17.7
2022-10-15T14:35:49.989Z,17.7
2022-10-15T14:37:43.229Z,17.7
2022-10-15T14:39:43.207Z,17.7
2022-10-15T14:41:48.205Z,17.7
2022-10-15T14:43:47.748Z,17.6
2022-10-15T14:45:43.191Z,17.6
2022-10-15T14:47:47.576Z,17.6
2022-10-15T14:49:48.189Z,17.6
2022-10-15T14:51:43.394Z,17.6
2022-10-15T14:53:43.198Z,17.6
2022-10-15T14:55:46.674Z,17.6
2022-10-15T14:59:43.086Z,17.7
2022-10-15T15:01:47.334Z,17.8
2022-10-15T15:03:48.120Z,17.8
2022-10-15T15:05:44.374Z,17.9
2022-10-15T15:07:46.806Z,17.9
2022-10-15T15:13:16.718Z,17.8
2022-10-15T15:17:49.022Z,17.7
2022-10-15T15:21:12.408Z,17.7
2022-10-15T15:23:05.958Z,17.7
2022-10-15T15:25:09.443Z,17.6
2022-10-15T15:27:07.879Z,17.6
2022-10-15T15:29:12.720Z,17.6
2022-10-15T15:31:10.413Z,17.6
2022-10-15T15:33:07.340Z,17.6
2022-10-15T15:35:05.602Z,17.4
2022-10-15T15:37:08.319Z,17.3
2022-10-15T15:39:09.402Z,17.2
2022-10-15T15:41:07.357Z,17.1
2022-10-15T15:43:07.318Z,17.1
2022-10-15T15:45:06.013Z,17.1
2022-10-15T15:47:07.309Z,17.1
2022-10-15T15:49:10.066Z,17.1
2022-10-15T15:51:09.752Z,17
2022-10-15T15:53:07.410Z,16.9
2022-10-15T15:55:09.099Z,16.9
2022-10-15T15:57:09.776Z,16.8
2022-10-15T15:59:09.933Z,16.8
2022-10-15T16:01:07.458Z,16.8
2022-10-15T16:03:06.009Z,16.8
2022-10-15T16:05:07.330Z,16.7
2022-10-15T16:07:11.793Z,16.7
2022-10-15T16:09:09.567Z,16.6
2022-10-15T16:11:10.297Z,16.6
2022-10-15T16:13:10.550Z,16.5
2022-10-15T16:15:07.927Z,16.6
2022-10-15T16:17:07.339Z,16.5
2022-10-15T16:19:07.474Z,16.5
2022-10-15T16:21:07.411Z,16.5
2022-10-15T16:23:09.545Z,16.5
2022-10-15T16:25:07.374Z,16.4
2022-10-15T16:27:10.407Z,16.2
2022-10-15T16:29:09.130Z,16.2
2022-10-15T16:31:07.527Z,16.1
2022-10-15T16:35:08.577Z,16.1
2022-10-15T16:37:10.150Z,16.1
2022-10-15T16:39:07.380Z,16
2022-10-15T16:41:09.531Z,16
2022-10-15T16:43:08.655Z,16
2022-10-15T16:47:08.525Z,15.9
2022-10-15T16:49:09.892Z,15.8
2022-10-15T16:51:07.369Z,15.8
2022-10-15T16:53:07.719Z,15.9
2022-10-15T16:55:07.676Z,16
2022-10-15T16:57:07.495Z,15.9
2022-10-15T16:59:09.401Z,15.9
2022-10-15T17:01:07.019Z,15.8
2022-10-15T17:03:10.953Z,15.8
2022-10-15T17:05:09.547Z,15.8
2022-10-15T17:07:08.843Z,15.9
2022-10-15T17:09:10.396Z,15.9
2022-10-15T17:11:07.434Z,15.9
2022-10-15T17:13:10.460Z,15.8
2022-10-15T17:15:07.762Z,15.9
2022-10-15T17:17:07.806Z,15.9
2022-10-15T17:19:07.295Z,15.8
2022-10-15T17:21:07.435Z,15.8
2022-10-15T17:23:08.250Z,15.8
2022-10-15T17:25:10.580Z,15.8
2022-10-15T17:27:08.395Z,15.8
2022-10-15T17:29:05.980Z,15.8
2022-10-15T17:31:07.486Z,15.8
2022-10-15T17:33:07.685Z,15.8
2022-10-15T17:35:10.165Z,15.7
2022-10-15T17:37:07.798Z,15.7
2022-10-15T17:39:10.007Z,15.7
2022-10-15T17:41:07.739Z,15.7
2022-10-15T17:43:09.541Z,15.8
2022-10-15T17:45:10.061Z,15.8
2022-10-15T17:47:10.041Z,15.8
2022-10-15T17:49:09.071Z,15.8
2022-10-15T17:51:08.642Z,15.8
2022-10-15T17:53:06.428Z,15.8
2022-10-15T17:55:09.979Z,15.8
2022-10-15T17:57:09.555Z,15.8
2022-10-15T17:59:09.516Z,15.7
2022-10-15T18:01:09.007Z,15.7
2022-10-15T18:03:09.552Z,15.7
2022-10-15T18:05:07.904Z,15.7
2022-10-15T18:07:08.416Z,15.6
2022-10-15T18:09:09.114Z,15.6
2022-10-15T18:11:10.016Z,15.7
2022-10-15T18:13:07.419Z,15.7
2022-10-15T18:15:09.148Z,15.6
2022-10-15T18:17:07.460Z,15.7
2022-10-15T18:19:10.044Z,15.7
2022-10-15T18:21:07.734Z,15.7
2022-10-15T18:23:07.764Z,15.7
2022-10-15T18:25:09.476Z,15.7
2022-10-15T18:27:07.460Z,15.6
2022-10-15T18:29:10.854Z,15.7
2022-10-15T18:31:07.680Z,15.7
2022-10-15T18:33:08.683Z,15.7
2022-10-15T18:35:10.023Z,15.6
2022-10-15T18:37:08.367Z,15.6
2022-10-15T18:39:09.518Z,15.6
2022-10-15T18:41:09.702Z,15.5
2022-10-15T18:43:08.611Z,15.5
2022-10-15T18:45:10.545Z,15.4
2022-10-15T18:47:07.473Z,15.3
2022-10-15T18:49:07.735Z,15.4
2022-10-15T18:51:09.221Z,15.4
2022-10-15T18:53:09.051Z,15.3
2022-10-15T18:55:10.185Z,15.3
2022-10-15T18:57:07.804Z,15.2
2022-10-15T18:59:10.313Z,15.2
2022-10-15T19:01:07.766Z,15.1
2022-10-15T19:03:09.900Z,15
2022-10-15T19:05:10.091Z,15
2022-10-15T19:07:10.267Z,15
2022-10-15T19:09:11.003Z,14.9
2022-10-15T19:11:09.093Z,14.9
2022-10-15T19:13:09.670Z,14.9
2022-10-15T19:15:05.989Z,14.9
2022-10-15T19:17:05.976Z,15
2022-10-15T19:19:08.672Z,15
2022-10-15T19:21:08.669Z,15.1
2022-10-15T19:23:09.951Z,15.1
2022-10-15T19:25:08.239Z,15.1
2022-10-15T19:27:05.686Z,15.2
2022-10-15T19:29:07.404Z,15.2
2022-10-15T19:31:09.847Z,15.2
2022-10-15T19:33:07.463Z,15.2
2022-10-15T19:35:08.332Z,15.2
2022-10-15T19:37:05.665Z,15.2
2022-10-15T19:39:07.744Z,15.2
2022-10-15T19:41:10.027Z,15.1
2022-10-15T19:43:08.252Z,15.1
2022-10-15T19:45:08.329Z,15.2
2022-10-15T19:47:08.364Z,15.2
2022-10-15T19:49:09.223Z,15.2
2022-10-15T19:51:07.056Z,15.2
2022-10-15T19:53:10.514Z,15.2
2022-10-15T19:55:07.460Z,15.2
2022-10-15T19:57:10.541Z,15.1
2022-10-15T19:59:09.986Z,15.1
2022-10-15T20:01:10.141Z,15.1
2022-10-15T20:03:07.409Z,15.2
2022-10-15T20:05:09.537Z,15.1
2022-10-15T20:07:10.437Z,15.1
2022-10-15T20:09:07.753Z,15.1
2022-10-15T20:11:08.647Z,15.1
2022-10-15T20:13:08.994Z,15.1
2022-10-15T20:15:07.825Z,15.1
2022-10-15T20:17:10.661Z,15.1
2022-10-15T20:19:07.832Z,15.1
2022-10-15T20:21:09.169Z,15.1
2022-10-15T20:23:09.618Z,15.1
2022-10-15T20:25:07.395Z,15.1
2022-10-15T20:27:10.531Z,15.1
2022-10-15T20:29:09.987Z,15.1
2022-10-15T20:31:07.361Z,15
2022-10-15T20:33:10.038Z,15.1
2022-10-15T20:35:10.686Z,15
2022-10-15T20:37:10.087Z,15
2022-10-15T20:39:06.050Z,15
2022-10-15T20:41:10.954Z,15
2022-10-15T20:43:09.641Z,15
2022-10-15T20:45:06.411Z,15
2022-10-15T20:47:07.480Z,15
2022-10-15T20:49:08.646Z,15
2022-10-15T20:51:07.446Z,15
2022-10-15T20:53:06.443Z,15
2022-10-15T20:55:09.177Z,15
2022-10-15T20:57:10.214Z,15
2022-10-15T20:59:10.879Z,15
2022-10-15T21:01:08.682Z,14.9
2022-10-15T21:03:07.723Z,15
2022-10-15T21:05:07.488Z,14.9
2022-10-15T21:07:06.040Z,14.9
2022-10-15T21:09:10.823Z,14.9
2022-10-15T21:11:05.719Z,14.9
2022-10-15T21:13:09.080Z,14.9
2022-10-15T21:15:10.077Z,14.9
2022-10-15T21:17:09.827Z,14.9
2022-10-15T21:19:09.580Z,14.8
2022-10-15T21:23:09.643Z,14.7
2022-10-15T21:25:07.705Z,14.7
2022-10-15T21:27:08.268Z,14.7
2022-10-15T21:29:06.067Z,14.8
2022-10-15T21:31:10.126Z,14.9
2022-10-15T21:33:08.951Z,14.8
2022-10-15T21:35:07.828Z,14.8
2022-10-15T21:37:06.405Z,14.9
2022-10-15T21:39:09.651Z,14.8
2022-10-15T21:41:10.099Z,14.8
2022-10-15T21:43:10.371Z,14.8
2022-10-15T21:48:47.206Z,14.9
2022-10-15T21:50:47.895Z,14.9
2022-10-15T21:52:49.710Z,14.9
2022-10-15T21:54:49.517Z,14.9
2022-10-15T21:56:50.026Z,14.9
2022-10-15T21:58:49.915Z,14.9
2022-10-15T22:00:45.252Z,14.9
2022-10-15T22:02:48.909Z,14.8
2022-10-15T22:04:52.937Z,14.8
2022-10-15T22:06:49.315Z,14.9
2022-10-15T22:08:47.163Z,14.9
2022-10-15T22:10:50.011Z,15
2022-10-15T22:12:49.327Z,15.1
2022-10-15T22:14:47.910Z,15.2
2022-10-15T22:18:47.970Z,15.3
2022-10-15T22:20:44.199Z,15.2
2022-10-15T22:22:50.646Z,15.2
2022-10-15T22:24:45.703Z,15.1
2022-10-15T22:26:48.901Z,15.1
2022-10-15T22:30:46.507Z,15
2022-10-15T22:32:52.647Z,15
2022-10-15T22:34:49.706Z,15
2022-10-15T22:36:46.736Z,15
2022-10-15T22:38:47.678Z,14.9
2022-10-15T22:42:46.732Z,14.9
2022-10-15T22:44:46.562Z,14.9
2022-10-15T22:46:50.880Z,14.9
2022-10-15T22:48:49.053Z,14.9
2022-10-15T22:50:47.599Z,14.9
2022-10-15T22:52:49.510Z,14.9
2022-10-15T22:54:43.872Z,14.8
2022-10-15T22:58:49.497Z,14.8
2022-10-15T23:00:44.716Z,14.7
2022-10-15T23:02:49.493Z,14.7
2022-10-15T23:04:49.490Z,14.8
2022-10-15T23:06:44.731Z,14.8
2022-10-15T23:08:46.863Z,14.7
2022-10-15T23:10:49.678Z,14.6
2022-10-15T23:12:49.578Z,14.5
2022-10-15T23:14:47.591Z,14.5
2022-10-15T23:18:47.648Z,14.5
2022-10-15T23:20:43.011Z,14.5
2022-10-15T23:22:49.792Z,14.5
2022-10-15T23:26:43.036Z,14.5
2022-10-15T23:28:49.548Z,14.5
2022-10-15T23:30:46.395Z,14.5
2022-10-15T23:32:43.021Z,14.4
2022-10-15T23:34:49.715Z,14.5
2022-10-15T23:36:45.711Z,14.5
2022-10-15T23:38:49.250Z,14.5
2022-10-15T23:42:44.779Z,14.6
2022-10-15T23:44:46.197Z,14.5
2022-10-15T23:46:49.867Z,14.5
2022-10-15T23:48:47.581Z,14.5
2022-10-15T23:50:48.848Z,14.5
2022-10-15T23:52:49.525Z,14.6
2022-10-15T23:54:48.050Z,14.6
2022-10-15T23:56:47.418Z,14.5
2022-10-15T23:58:49.559Z,14.5
